Tuneiras do Oeste, Brazil
Current Conditions -  °F | °C
As of 11:00 AM on Thursday 23 Oct 2014 (Local Time) from SBMG Reporting Station
Clear Clear  
Wind Chill: 79°   Ceiling: Unl
Heat Index: 80°   Visibility: 6mi
Dew Point: 59°   Wind: 13mph
Humidity: 51%   Direction: 60°ENE
Pressure: 30.09"   Gusts: NA
Location:  23.87°S, 52.88°W
Report Text: SBMG 231300Z 06011KT CAVOK 26/15 Q1019
Loading
Personal Weather Stations






























Interactive Weather Map
Tropical Storm Tracking
New forecast layout! Learn more

10-Day Weather Forecast

Advertisements
Track Severe Weather on mobile